Racecast

Elizabeth Lietaert

Temperance Bedford (MI) · 9 · SECMI D1MONROE · Compare head to head

Athlete rating 82.6 2017 XC season
Best race 99.1 XC
Races 38
Seasons 3 2015 — 2017

RankedNation #144046·MI #7381·MI D1 #3933·SEC #346·Team #130 ?

Rating scale ?

Cross Country

2017 XC 76.8

Temperance Bedford (MI) · Grade 9

Date Meet Event Result Place Rating Difficulty PR/SR Flags
2017-10-28 Lake Erie Metro Park OFFICIAL 5000m 33:55.2 135th · 23rd on team 80.5 +0.055
2017-10-19 Hudson Mills Metropark - OFFICIAL 5000m 34:11.2 191st · 17th on team 79.2 +0.036 ★CR CSR
2017-10-10 Indian Creek OFFICIAL 5000m 36:27.1 33rd · 25th on team 74.2 +0.039 ★CR CSR
2017-09-30 Lake Erie Metro Park OFFICIAL 5000m 33:30.5 84th · 21st on team 81.1 +0.055 ★PR ★CR SR CSR RSR
2017-09-22 Ella Sharp Park OFFICIAL 5000m 35:50.6 151st · 20th on team 76.8 +0.038 ★CR CSR RSR
2017-09-09 Hedges Boyer Park 5000m 34:23.9 419th · 17th on team 72.8 -0.036 PR ★CR SR CSR
2017-08-26 Boy Scout Camp Lakota 5000m 35:24.9 196th · 28th on team 72.9 -0.003 PR ★CR SR CSR RSR

2016 XC 84.7

Temperance Bedford (MI) · Grade 8

Date Meet Event Result Place Rating Difficulty PR/SR Flags
2016-10-15 Munson Park 3200m 20:57.3 87th · 24th on team 91.0 +0.034 SR CSR
2016-10-12 Heritage Park (Adrian) OFFICIAL 3218m 22:04.9 144th · 45th on team 87.3 +0.046 ★CR CSR
2016-10-08 Monroe County Comm College 3218m 20:36.4 71st · 20th on team 90.0 +0.007 ★CR SR CSR
2016-10-01 Pearson's Metro Park 3200m 25:03.8 144th · 17th on team 73.1 -0.067 ★CR CSR
2016-09-28 Hudson Mills Metropark - OFFICIAL 3218m 21:14.1 145th · 41st on team 92.3 +0.062 SR CSR RSR
2016-09-24 Maumee Bay State Park 3218m 22:07.7 189th · 22nd on team 80.3 -0.033 ★CR SR CSR
2016-09-14 Rolling Hills 3000m 20:54.3 106th · 28th on team 87.3 +0.071 ★PR ★CR SR CSR RSR
2016-09-01 Eastwood HS 3200m 22:51.5 205th · 22nd on team 75.9 -0.060 ★CR SR CSR RSR

2015 XC 91.7

Temperance Bedford (MI) · Grade 7

Date Meet Event Result Place Rating Difficulty PR/SR Flags
2015-10-24 Hudson Mills Metropark - OFFICIAL 3218m 19:47.4 124th · 13th on team 99.1 +0.062 ★PR ★CR ★R SR CSR RSR
2015-10-17 Munson Park 3200m 19:10.1 71st · 25th on team 98.4 +0.034 ★PR ★CR R SR CSR RSR
2015-10-14 Munson Park 3200m 19:15.1 121st · 24th on team 97.3 +0.034 PR CR R SR CSR RSR
2015-09-30 Hudson Mills Metropark - OFFICIAL 3200m 20:23.4 126th · 24th on team 95.7 +0.062 PR ★CR R SR CSR RSR
2015-09-26 Sterling State Park 3218m 22:11 122nd · 28th on team 88.2 +0.057 PR ★CR R SR CSR RSR
2015-09-16 Mill Pond Park 3621m 26:36.1 120th · 26th on team 86.7 +0.099 ★PR ★CR R SR CSR RSR
2015-09-12 Hedges Boyer Park 3200m 21:41 39th · 23rd on team 76.4 -0.089 PR ★CR R SR CSR RSR

Track & Field

2017 TF 88.8

Temperance Bedford (MI) · Grade 8

Date Meet Event Result Place Rating Difficulty PR/SR Flags
2017-05-15 SEC MS: Mill Creek (Dexter) vs. Bedford shot 23-11.00 -0.036
2017-05-15 SEC MS: Mill Creek (Dexter) vs. Bedford 800m 3:45.64 20th · 8th on team 88.1 -0.036
2017-05-08 Temperance Bedford MS Vs. Tecumseh MS Vs. Ypsilanti MS 800m 3:41 12th · 12th on team 90.3 -0.033 ★PR SR RSR
2017-04-12 Monroe @ Bedford shot 19-1 -0.033
2017-04-12 Monroe @ Bedford 800m 3:46 10th · 10th on team 88.0 -0.033 SR RSR

2016 TF 87.8

Temperance Bedford (MI) · Grade 7

Date Meet Event Result Place Rating Difficulty PR/SR Flags
2016-05-17 Bedford @ Chelsea shot 16-10.00 -0.029
2016-05-17 Bedford @ Chelsea 800m 3:42.85 18th · 11th on team 89.7 -0.029 PR SR RSR
2016-05-12 Bedford at Lincoln shot 18'2 -0.032
2016-05-05 Bedford MS @ Saline MS shot 18'0 -0.038
2016-05-05 Bedford MS @ Saline MS 800m 3:48 18th · 7th on team 87.3 -0.038
2016-05-02 Bedford at Ypsilanti shot 17'9 -0.029
2016-04-28 Monroe @ Bedford shot 18'3 -0.033
2016-04-28 Monroe @ Bedford 800m 3:54 10th · 10th on team 86.1 -0.033
2016-04-25 Tecumseh @ Bedford shot 17'9.5 -0.033
2016-04-25 Tecumseh @ Bedford 800m 3:46 9th · 9th on team 88.1 -0.033 PR SR RSR
2016-04-21 Adrian @ Bedford shot 16'10 -0.033